Arlington, Vermont
Current Conditions -  °F | °C
As of 5:54 AM on Thursday 23 Oct 2014 (Local Time) from KDDH Reporting Station
Light Rain Light Rain  
Wind Chill: 41°   Ceiling: 1100
Heat Index: 44°   Visibility: 8mi
Dew Point: 42°   Wind: 6mph
Humidity: 93%   Direction: 320°NW
Pressure: 29.83"   Gusts: NA
Location:  43.07°N, 73.15°W
Report Text: KDDH 230954Z AUTO 32005KT 8SM -RA BKN011 BKN027 OVC046 07/06 A2983 RMK AO2 SLP103 P0011 T00670056
Loading
Personal Weather Stations






























Interactive Weather Map New forecast layout! Learn more

10-Day Weather Forecast

Advertisements
Track Severe Weather on mobile